sensor_id;sensor_type;location;lat;lon;timestamp;pressure;altitude;pressure_sealevel;temperature;humidity
55068;BME280;40965;52.368;9.712;2023-05-09T00:00:01;101288.16;;;11.02;67.51
55068;BME280;40965;52.368;9.712;2023-05-09T00:02:29;101292.50;;;10.99;67.17
55068;BME280;40965;52.368;9.712;2023-05-09T00:04:58;101290.78;;;10.93;68.31
55068;BME280;40965;52.368;9.712;2023-05-09T00:07:27;101292.50;;;10.91;68.00
55068;BME280;40965;52.368;9.712;2023-05-09T00:09:55;101290.78;;;10.90;68.10
55068;BME280;40965;52.368;9.712;2023-05-09T00:12:22;101286.41;;;10.87;68.11
55068;BME280;40965;52.368;9.712;2023-05-09T00:14:49;101287.28;;;10.82;68.47
55068;BME280;40965;52.368;9.712;2023-05-09T00:17:19;101289.00;;;10.76;68.37
55068;BME280;40965;52.368;9.712;2023-05-09T00:19:47;101284.66;;;10.75;69.29
55068;BME280;40965;52.368;9.712;2023-05-09T00:22:15;101283.78;;;10.75;68.48
55068;BME280;40965;52.368;9.712;2023-05-09T00:24:43;101278.56;;;10.72;69.29
55068;BME280;40965;52.368;9.712;2023-05-09T00:27:09;101275.03;;;10.70;69.60
55068;BME280;40965;52.368;9.712;2023-05-09T00:29:36;101269.81;;;10.65;69.34
55068;BME280;40965;52.368;9.712;2023-05-09T00:32:03;101270.69;;;10.63;69.79
55068;BME280;40965;52.368;9.712;2023-05-09T00:34:29;101256.72;;;10.59;69.77
55068;BME280;40965;52.368;9.712;2023-05-09T00:36:55;101256.72;;;10.59;69.59
55068;BME280;40965;52.368;9.712;2023-05-09T00:39:22;101260.22;;;10.53;69.78
55068;BME280;40965;52.368;9.712;2023-05-09T00:41:50;101254.09;;;10.50;70.09
55068;BME280;40965;52.368;9.712;2023-05-09T00:44:17;101257.56;;;10.44;70.43
55068;BME280;40965;52.368;9.712;2023-05-09T00:46:43;101257.56;;;10.42;70.65
55068;BME280;40965;52.368;9.712;2023-05-09T00:49:10;101252.34;;;10.41;70.45
55068;BME280;40965;52.368;9.712;2023-05-09T00:51:40;101258.44;;;10.38;71.24
55068;BME280;40965;52.368;9.712;2023-05-09T00:54:07;101259.28;;;10.33;70.82
55068;BME280;40965;52.368;9.712;2023-05-09T00:56:36;101259.25;;;10.28;70.80
55068;BME280;40965;52.368;9.712;2023-05-09T00:59:02;101257.50;;;10.25;71.45
55068;BME280;40965;52.368;9.712;2023-05-09T01:01:30;101247.91;;;10.20;71.43
55068;BME280;40965;52.368;9.712;2023-05-09T01:03:57;101245.31;;;10.18;72.11
55068;BME280;40965;52.368;9.712;2023-05-09T01:06:37;101243.56;;;10.16;72.66
55068;BME280;40965;52.368;9.712;2023-05-09T01:09:37;101234.81;;;10.12;73.06
55068;BME280;40965;52.368;9.712;2023-05-09T01:12:15;101229.59;;;10.09;72.51
55068;BME280;40965;52.368;9.712;2023-05-09T01:15:45;101226.94;;;10.03;73.24
55068;BME280;40965;52.368;9.712;2023-05-09T01:18:25;101222.56;;;9.97;73.20
55068;BME280;40965;52.368;9.712;2023-05-09T01:21:08;101217.31;;;9.91;73.96
55068;BME280;40965;52.368;9.712;2023-05-09T01:23:54;101215.56;;;9.87;73.57
55068;BME280;40965;52.368;9.712;2023-05-09T01:26:54;101208.56;;;9.83;74.10
55068;BME280;40965;52.368;9.712;2023-05-09T01:29:51;101204.19;;;9.79;74.01
55068;BME280;40965;52.368;9.712;2023-05-09T01:32:27;101209.44;;;9.74;74.33
55068;BME280;40965;52.368;9.712;2023-05-09T01:34:55;101205.94;;;9.70;74.52
55068;BME280;40965;52.368;9.712;2023-05-09T01:37:33;101207.66;;;9.68;74.49
55068;BME280;40965;52.368;9.712;2023-05-09T01:40:13;101201.56;;;9.66;74.68
55068;BME280;40965;52.368;9.712;2023-05-09T01:42:50;101200.66;;;9.61;74.99
55068;BME280;40965;52.368;9.712;2023-05-09T01:45:18;101203.25;;;9.58;75.43
55068;BME280;40965;52.368;9.712;2023-05-09T01:47:47;101194.53;;;9.56;75.70
55068;BME280;40965;52.368;9.712;2023-05-09T01:50:16;101194.50;;;9.51;75.87
55068;BME280;40965;52.368;9.712;2023-05-09T01:52:46;101191.00;;;9.48;76.14
55068;BME280;40965;52.368;9.712;2023-05-09T01:55:15;101187.50;;;9.42;76.40
55068;BME280;40965;52.368;9.712;2023-05-09T01:57:44;101196.22;;;9.41;77.05
55068;BME280;40965;52.368;9.712;2023-05-09T02:00:12;101188.38;;;9.41;77.33
55068;BME280;40965;52.368;9.712;2023-05-09T02:02:39;101190.97;;;9.35;77.33
55068;BME280;40965;52.368;9.712;2023-05-09T02:05:08;101198.81;;;9.32;77.51
55068;BME280;40965;52.368;9.712;2023-05-09T02:07:35;101189.19;;;9.28;77.62
55068;BME280;40965;52.368;9.712;2023-05-09T02:10:02;101192.66;;;9.24;78.04
55068;BME280;40965;52.368;9.712;2023-05-09T02:12:29;101193.50;;;9.21;78.12
55068;BME280;40965;52.368;9.712;2023-05-09T02:14:56;101183.91;;;9.19;78.08
55068;BME280;40965;52.368;9.712;2023-05-09T02:17:22;101176.94;;;9.16;78.93
55068;BME280;40965;52.368;9.712;2023-05-09T02:19:49;101173.44;;;9.14;79.39
55068;BME280;40965;52.368;9.712;2023-05-09T02:22:15;101179.53;;;9.12;79.57
55068;BME280;40965;52.368;9.712;2023-05-09T02:24:44;101180.38;;;9.10;79.49
55068;BME280;40965;52.368;9.712;2023-05-09T02:27:11;101179.53;;;9.10;79.45
55068;BME280;40965;52.368;9.712;2023-05-09T02:29:47;101176.03;;;9.05;79.74
55068;BME280;40965;52.368;9.712;2023-05-09T02:32:21;101169.91;;;9.00;79.88
55068;BME280;40965;52.368;9.712;2023-05-09T02:34:51;101183.81;;;9.00;79.70
55068;BME280;40965;52.368;9.712;2023-05-09T02:37:19;101187.28;;;8.99;79.72
55068;BME280;40965;52.368;9.712;2023-05-09T02:39:47;101182.91;;;8.95;79.88
55068;BME280;40965;52.368;9.712;2023-05-09T02:42:20;101187.25;;;8.93;80.10
55068;BME280;40965;52.368;9.712;2023-05-09T02:44:49;101178.53;;;8.89;80.80
55068;BME280;40965;52.368;9.712;2023-05-09T02:47:16;101185.47;;;8.87;80.56
55068;BME280;40965;52.368;9.712;2023-05-09T02:49:43;101181.09;;;8.85;80.87
55068;BME280;40965;52.368;9.712;2023-05-09T02:52:10;101170.66;;;8.86;81.01
55068;BME280;40965;52.368;9.712;2023-05-09T02:54:37;101167.19;;;8.87;80.99
55068;BME280;40965;52.368;9.712;2023-05-09T02:57:04;101168.09;;;8.89;81.37
55068;BME280;40965;52.368;9.712;2023-05-09T02:59:31;101170.72;;;8.92;80.74
55068;BME280;40965;52.368;9.712;2023-05-09T03:01:57;101168.09;;;8.92;80.41
55068;BME280;40965;52.368;9.712;2023-05-09T03:04:25;101162.88;;;8.91;80.61
55068;BME280;40965;52.368;9.712;2023-05-09T03:06:51;101164.59;;;8.89;81.01
55068;BME280;40965;52.368;9.712;2023-05-09T03:09:18;101161.97;;;8.84;80.57
55068;BME280;40965;52.368;9.712;2023-05-09T03:11:44;101152.38;;;8.80;81.34
55068;BME280;40965;52.368;9.712;2023-05-09T03:14:14;101161.00;;;8.74;81.49
55068;BME280;40965;52.368;9.712;2023-05-09T03:16:40;101164.47;;;8.73;81.95
55068;BME280;40965;52.368;9.712;2023-05-09T03:19:07;101159.25;;;8.69;81.68
55068;BME280;40965;52.368;9.712;2023-05-09T03:21:33;101158.34;;;8.65;82.24
55068;BME280;40965;52.368;9.712;2023-05-09T03:24:00;101161.81;;;8.63;82.69
55068;BME280;40965;52.368;9.712;2023-05-09T03:26:28;101157.44;;;8.60;82.77
55068;BME280;40965;52.368;9.712;2023-05-09T03:28:55;101154.81;;;8.55;83.38
55068;BME280;40965;52.368;9.712;2023-05-09T03:31:24;101158.22;;;8.51;83.49
55068;BME280;40965;52.368;9.712;2023-05-09T03:33:52;101148.63;;;8.47;84.11
55068;BME280;40965;52.368;9.712;2023-05-09T03:36:19;101145.13;;;8.45;84.51
55068;BME280;40965;52.368;9.712;2023-05-09T03:38:45;101146.84;;;8.41;84.66
55068;BME280;40965;52.368;9.712;2023-05-09T03:41:15;101150.31;;;8.42;85.41
55068;BME280;40965;52.368;9.712;2023-05-09T03:43:42;101148.53;;;8.39;85.59
55068;BME280;40965;52.368;9.712;2023-05-09T03:46:09;101152.00;;;8.35;85.62
55068;BME280;40965;52.368;9.712;2023-05-09T03:48:35;101145.91;;;8.35;86.01
55068;BME280;40965;52.368;9.712;2023-05-09T03:51:03;101140.69;;;8.35;86.08
55068;BME280;40965;52.368;9.712;2023-05-09T03:53:30;101137.19;;;8.34;86.20
55068;BME280;40965;52.368;9.712;2023-05-09T03:55:58;101132.88;;;8.35;86.30
55068;BME280;40965;52.368;9.712;2023-05-09T03:58:24;101132.03;;;8.36;86.27
55068;BME280;40965;52.368;9.712;2023-05-09T04:00:51;101123.28;;;8.35;86.34
55068;BME280;40965;52.368;9.712;2023-05-09T04:03:17;101122.44;;;8.36;86.07
55068;BME280;40965;52.368;9.712;2023-05-09T04:05:44;101125.91;;;8.37;85.96
55068;BME280;40965;52.368;9.712;2023-05-09T04:08:11;101132.88;;;8.36;85.99
55068;BME280;40965;52.368;9.712;2023-05-09T04:10:47;101132.88;;;8.35;86.19
55068;BME280;40965;52.368;9.712;2023-05-09T04:13:15;101128.50;;;8.35;85.69
55068;BME280;40965;52.368;9.712;2023-05-09T04:15:41;101132.88;;;8.35;86.35
55068;BME280;40965;52.368;9.712;2023-05-09T04:18:08;101126.81;;;8.37;86.35
55068;BME280;40965;52.368;9.712;2023-05-09T04:20:34;101118.16;;;8.44;86.01
55068;BME280;40965;52.368;9.712;2023-05-09T04:23:01;101118.22;;;8.46;85.84
55068;BME280;40965;52.368;9.712;2023-05-09T04:25:28;101120.84;;;8.51;85.42
55068;BME280;40965;52.368;9.712;2023-05-09T04:27:55;101121.75;;;8.54;85.45
55068;BME280;40965;52.368;9.712;2023-05-09T04:30:22;101121.75;;;8.59;85.72
55068;BME280;40965;52.368;9.712;2023-05-09T04:32:51;101122.66;;;8.63;85.69
55068;BME280;40965;52.368;9.712;2023-05-09T04:35:19;101112.25;;;8.66;85.87
55068;BME280;40965;52.368;9.712;2023-05-09T04:37:46;101118.34;;;8.69;85.61
55068;BME280;40965;52.368;9.712;2023-05-09T04:40:13;101121.84;;;8.73;85.28
55068;BME280;40965;52.368;9.712;2023-05-09T04:42:40;101109.69;;;8.75;85.45
55068;BME280;40965;52.368;9.712;2023-05-09T04:45:06;101117.53;;;8.81;85.66
55068;BME280;40965;52.368;9.712;2023-05-09T04:47:36;101109.75;;;8.87;85.22
55068;BME280;40965;52.368;9.712;2023-05-09T04:50:05;101110.66;;;8.92;85.01
55068;BME280;40965;52.368;9.712;2023-05-09T04:52:33;101096.75;;;8.98;84.90
55068;BME280;40965;52.368;9.712;2023-05-09T04:55:00;101097.66;;;9.05;84.14
55068;BME280;40965;52.368;9.712;2023-05-09T04:57:26;101102.91;;;9.06;84.30
55068;BME280;40965;52.368;9.712;2023-05-09T04:59:55;101099.44;;;9.09;83.75
55068;BME280;40965;52.368;9.712;2023-05-09T05:02:23;101093.34;;;9.13;83.87
55068;BME280;40965;52.368;9.712;2023-05-09T05:04:50;101089.00;;;9.17;83.95
55068;BME280;40965;52.368;9.712;2023-05-09T05:07:26;101097.75;;;9.23;83.50
55068;BME280;40965;52.368;9.712;2023-05-09T05:09:55;101102.97;;;9.26;83.66
55068;BME280;40965;52.368;9.712;2023-05-09T05:12:23;101093.41;;;9.30;83.30
55068;BME280;40965;52.368;9.712;2023-05-09T05:14:53;101096.03;;;9.36;83.53
55068;BME280;40965;52.368;9.712;2023-05-09T05:17:23;101089.09;;;9.41;83.11
55068;BME280;40965;52.368;9.712;2023-05-09T05:19:49;101087.38;;;9.48;82.74
55068;BME280;40965;52.368;9.712;2023-05-09T05:22:16;101077.81;;;9.52;82.09
55068;BME280;40965;52.368;9.712;2023-05-09T05:24:42;101083.91;;;9.57;82.35
55068;BME280;40965;52.368;9.712;2023-05-09T05:27:09;101085.66;;;9.63;81.76
55068;BME280;40965;52.368;9.712;2023-05-09T05:29:35;101089.16;;;9.66;81.94
55068;BME280;40965;52.368;9.712;2023-05-09T05:32:02;101090.03;;;9.71;81.62
55068;BME280;40965;52.368;9.712;2023-05-09T05:34:28;101098.75;;;9.80;81.17
55068;BME280;40965;52.368;9.712;2023-05-09T05:36:55;101090.94;;;9.84;81.12
55068;BME280;40965;52.368;9.712;2023-05-09T05:39:22;101086.56;;;9.92;80.93
55068;BME280;40965;52.368;9.712;2023-05-09T05:41:48;101085.69;;;10.03;80.60
55068;BME280;40965;52.368;9.712;2023-05-09T05:44:16;101082.22;;;10.15;80.22
55068;BME280;40965;52.368;9.712;2023-05-09T05:46:42;101068.25;;;10.23;79.55
55068;BME280;40965;52.368;9.712;2023-05-09T05:49:08;101071.72;;;10.35;79.17
55068;BME280;40965;52.368;9.712;2023-05-09T05:51:35;101061.25;;;10.44;78.62
55068;BME280;40965;52.368;9.712;2023-05-09T05:54:02;101066.50;;;10.55;78.31
55068;BME280;40965;52.368;9.712;2023-05-09T05:56:30;101063.84;;;10.64;78.00
55068;BME280;40965;52.368;9.712;2023-05-09T05:58:56;101067.31;;;10.72;77.48
55068;BME280;40965;52.368;9.712;2023-05-09T06:01:23;101067.28;;;10.80;77.12
55068;BME280;40965;52.368;9.712;2023-05-09T06:03:49;101066.41;;;10.89;76.37
55068;BME280;40965;52.368;9.712;2023-05-09T06:06:20;101059.34;;;10.99;75.79
55068;BME280;40965;52.368;9.712;2023-05-09T06:08:47;101051.44;;;11.08;75.53
55068;BME280;40965;52.368;9.712;2023-05-09T06:11:15;101051.41;;;11.20;74.35
55068;BME280;40965;52.368;9.712;2023-05-09T06:13:42;101057.47;;;11.30;74.46
55068;BME280;40965;52.368;9.712;2023-05-09T06:16:08;101053.03;;;11.41;73.61
55068;BME280;40965;52.368;9.712;2023-05-09T06:18:37;101050.41;;;11.45;73.07
55068;BME280;40965;52.368;9.712;2023-05-09T06:21:05;101057.31;;;11.55;72.42
55068;BME280;40965;52.368;9.712;2023-05-09T06:23:32;101046.72;;;11.69;72.03
55068;BME280;40965;52.368;9.712;2023-05-09T06:26:00;101044.88;;;11.83;70.88
55068;BME280;40965;52.368;9.712;2023-05-09T06:28:28;101048.31;;;11.90;70.54
55068;BME280;40965;52.368;9.712;2023-05-09T06:30:55;101044.81;;;11.97;70.01
55068;BME280;40965;52.368;9.712;2023-05-09T06:33:21;101046.41;;;12.12;70.04
55068;BME280;40965;52.368;9.712;2023-05-09T06:35:48;101044.56;;;12.23;69.50
55068;BME280;40965;52.368;9.712;2023-05-09T06:38:14;101043.59;;;12.34;68.53
55068;BME280;40965;52.368;9.712;2023-05-09T06:40:40;101036.53;;;12.40;69.22
55068;BME280;40965;52.368;9.712;2023-05-09T06:43:07;101027.63;;;12.54;68.89
55068;BME280;40965;52.368;9.712;2023-05-09T06:45:33;101023.19;;;12.61;67.88
55068;BME280;40965;52.368;9.712;2023-05-09T06:48:00;101022.19;;;12.69;68.00
55068;BME280;40965;52.368;9.712;2023-05-09T06:50:26;101015.09;;;12.79;67.55
55068;BME280;40965;52.368;9.712;2023-05-09T06:52:53;101012.28;;;12.91;66.42
55068;BME280;40965;52.368;9.712;2023-05-09T06:55:19;101008.66;;;13.02;65.45
55068;BME280;40965;52.368;9.712;2023-05-09T06:57:46;101004.09;;;13.15;65.18
55068;BME280;40965;52.368;9.712;2023-05-09T07:00:13;101000.28;;;13.39;64.47
55068;BME280;40965;52.368;9.712;2023-05-09T07:02:40;100983.81;;;13.82;63.12
55068;BME280;40965;52.368;9.712;2023-05-09T07:05:08;100983.84;;;14.29;61.57
55068;BME280;40965;52.368;9.712;2023-05-09T07:07:34;100979.38;;;14.78;60.07
55068;BME280;40965;52.368;9.712;2023-05-09T07:10:01;100979.06;;;15.31;58.27
55068;BME280;40965;52.368;9.712;2023-05-09T07:12:32;100973.59;;;15.77;57.48
55068;BME280;40965;52.368;9.712;2023-05-09T07:14:58;100974.31;;;16.18;55.60
55068;BME280;40965;52.368;9.712;2023-05-09T07:17:25;100973.16;;;16.60;53.81
55068;BME280;40965;52.368;9.712;2023-05-09T07:19:54;100969.56;;;16.62;52.37
55068;BME280;40965;52.368;9.712;2023-05-09T07:22:20;100964.25;;;16.94;52.36
55068;BME280;40965;52.368;9.712;2023-05-09T07:24:47;100961.69;;;17.19;50.99
55068;BME280;40965;52.368;9.712;2023-05-09T07:27:14;100958.56;;;17.34;50.45
55068;BME280;40965;52.368;9.712;2023-05-09T07:29:41;100954.84;;;17.67;50.12
55068;BME280;40965;52.368;9.712;2023-05-09T07:32:07;100959.75;;;18.30;48.56
55068;BME280;40965;52.368;9.712;2023-05-09T07:34:34;100955.69;;;18.45;47.38
55068;BME280;40965;52.368;9.712;2023-05-09T07:37:02;100954.94;;;18.65;45.96
55068;BME280;40965;52.368;9.712;2023-05-09T07:39:28;100946.97;;;18.65;46.69
55068;BME280;40965;52.368;9.712;2023-05-09T07:41:54;100944.28;;;18.90;45.96
55068;BME280;40965;52.368;9.712;2023-05-09T07:44:21;100946.47;;;19.03;45.67
55068;BME280;40965;52.368;9.712;2023-05-09T07:46:47;100941.00;;;19.28;45.81
55068;BME280;40965;52.368;9.712;2023-05-09T07:49:14;100943.72;;;19.48;44.49
55068;BME280;40965;52.368;9.712;2023-05-09T07:51:40;100939.59;;;19.62;44.17
55068;BME280;40965;52.368;9.712;2023-05-09T07:54:10;100927.38;;;20.00;44.46
55068;BME280;40965;52.368;9.712;2023-05-09T07:56:36;100924.94;;;20.36;43.58
55068;BME280;40965;52.368;9.712;2023-05-09T07:59:03;100919.22;;;20.83;42.59
55068;BME280;40965;52.368;9.712;2023-05-09T08:01:29;100914.22;;;21.31;42.17
55068;BME280;40965;52.368;9.712;2023-05-09T08:03:56;100917.78;;;21.49;40.14
55068;BME280;40965;52.368;9.712;2023-05-09T08:06:22;100908.41;;;21.59;40.57
55068;BME280;40965;52.368;9.712;2023-05-09T08:08:50;100906.25;;;21.84;39.97
55068;BME280;40965;52.368;9.712;2023-05-09T08:11:17;100909.28;;;22.44;39.80
55068;BME280;40965;52.368;9.712;2023-05-09T08:13:44;100914.81;;;23.05;38.10
55068;BME280;40965;52.368;9.712;2023-05-09T08:16:12;100909.47;;;23.05;37.85
55068;BME280;40965;52.368;9.712;2023-05-09T08:18:39;100897.84;;;23.22;37.26
55068;BME280;40965;52.368;9.712;2023-05-09T08:21:05;100895.34;;;23.19;37.75
55068;BME280;40965;52.368;9.712;2023-05-09T08:23:32;100890.41;;;23.58;37.38
55068;BME280;40965;52.368;9.712;2023-05-09T08:25:58;100890.44;;;23.72;37.02
55068;BME280;40965;52.368;9.712;2023-05-09T08:28:25;100873.88;;;24.39;36.03
55068;BME280;40965;52.368;9.712;2023-05-09T08:30:53;100878.00;;;24.31;35.33
55068;BME280;40965;52.368;9.712;2023-05-09T08:33:20;100868.78;;;23.77;36.13
55068;BME280;40965;52.368;9.712;2023-05-09T08:35:53;100862.44;;;23.94;35.85
55068;BME280;40965;52.368;9.712;2023-05-09T08:38:23;100865.06;;;24.52;34.93
55068;BME280;40965;52.368;9.712;2023-05-09T08:40:50;100858.25;;;25.02;35.43
55068;BME280;40965;52.368;9.712;2023-05-09T08:43:18;100855.03;;;25.10;34.53
55068;BME280;40965;52.368;9.712;2023-05-09T08:46:02;100849.47;;;25.66;33.50
55068;BME280;40965;52.368;9.712;2023-05-09T08:48:33;100847.56;;;25.55;34.36
55068;BME280;40965;52.368;9.712;2023-05-09T08:51:04;100842.06;;;26.21;33.55
55068;BME280;40965;52.368;9.712;2023-05-09T08:53:32;100853.69;;;26.46;32.96
55068;BME280;40965;52.368;9.712;2023-05-09T08:55:59;100843.81;;;26.47;33.16
55068;BME280;40965;52.368;9.712;2023-05-09T08:58:27;100843.78;;;26.22;33.31
55068;BME280;40965;52.368;9.712;2023-05-09T09:00:53;100835.56;;;26.37;32.72
55068;BME280;40965;52.368;9.712;2023-05-09T09:03:22;100824.47;;;27.03;32.70
55068;BME280;40965;52.368;9.712;2023-05-09T09:05:49;100830.03;;;27.24;31.45
55068;BME280;40965;52.368;9.712;2023-05-09T09:08:17;100825.28;;;27.86;30.52
55068;BME280;40965;52.368;9.712;2023-05-09T09:10:44;100822.44;;;27.65;29.81
55068;BME280;40965;52.368;9.712;2023-05-09T09:13:13;100818.06;;;27.98;29.42
55068;BME280;40965;52.368;9.712;2023-05-09T09:15:42;100821.13;;;27.82;29.76
55068;BME280;40965;52.368;9.712;2023-05-09T09:18:15;100820.03;;;27.96;29.43
55068;BME280;40965;52.368;9.712;2023-05-09T09:20:52;100820.91;;;28.08;29.31
55068;BME280;40965;52.368;9.712;2023-05-09T09:23:24;100815.25;;;28.11;28.94
55068;BME280;40965;52.368;9.712;2023-05-09T09:25:58;100806.09;;;27.90;29.45
55068;BME280;40965;52.368;9.712;2023-05-09T09:28:25;100816.25;;;28.76;29.37
55068;BME280;40965;52.368;9.712;2023-05-09T09:30:52;100801.59;;;28.90;28.70
55068;BME280;40965;52.368;9.712;2023-05-09T09:33:19;100804.22;;;28.36;28.70
55068;BME280;40965;52.368;9.712;2023-05-09T09:35:53;100797.88;;;27.92;29.55
55068;BME280;40965;52.368;9.712;2023-05-09T09:38:22;100789.63;;;28.50;29.07
55068;BME280;40965;52.368;9.712;2023-05-09T09:40:55;100799.84;;;28.24;28.98
55068;BME280;40965;52.368;9.712;2023-05-09T09:43:27;100788.75;;;28.06;29.79
55068;BME280;40965;52.368;9.712;2023-05-09T09:45:55;100792.34;;;28.83;28.83
55068;BME280;40965;52.368;9.712;2023-05-09T09:48:26;100785.91;;;29.16;28.23
55068;BME280;40965;52.368;9.712;2023-05-09T09:50:54;100773.44;;;29.15;28.60
55068;BME280;40965;52.368;9.712;2023-05-09T09:53:21;100773.81;;;29.11;28.23
55068;BME280;40965;52.368;9.712;2023-05-09T09:55:49;100774.13;;;28.75;28.97
55068;BME280;40965;52.368;9.712;2023-05-09T09:58:18;100764.22;;;29.91;28.08
55068;BME280;40965;52.368;9.712;2023-05-09T10:00:46;100768.63;;;30.92;26.54
55068;BME280;40965;52.368;9.712;2023-05-09T10:03:14;100759.81;;;30.60;26.27
55068;BME280;40965;52.368;9.712;2023-05-09T10:05:41;100755.41;;;30.59;26.53
55068;BME280;40965;52.368;9.712;2023-05-09T10:08:08;100745.19;;;29.93;26.92
55068;BME280;40965;52.368;9.712;2023-05-09T10:10:36;100744.00;;;30.56;26.70
55068;BME280;40965;52.368;9.712;2023-05-09T10:13:05;100748.44;;;30.57;26.11
55068;BME280;40965;52.368;9.712;2023-05-09T10:15:34;100731.47;;;30.25;26.98
55068;BME280;40965;52.368;9.712;2023-05-09T10:18:02;100732.06;;;30.78;26.28
55068;BME280;40965;52.368;9.712;2023-05-09T10:20:32;100742.31;;;30.94;25.93
55068;BME280;40965;52.368;9.712;2023-05-09T10:23:01;100717.84;;;31.43;25.95
55068;BME280;40965;52.368;9.712;2023-05-09T10:25:37;100718.75;;;31.24;25.62
55068;BME280;40965;52.368;9.712;2023-05-09T10:28:17;100711.53;;;31.52;25.02
55068;BME280;40965;52.368;9.712;2023-05-09T10:31:00;100700.06;;;32.24;24.91
55068;BME280;40965;52.368;9.712;2023-05-09T10:33:38;100709.72;;;32.26;24.28
55068;BME280;40965;52.368;9.712;2023-05-09T10:36:08;100716.84;;;30.96;25.35
55068;BME280;40965;52.368;9.712;2023-05-09T10:38:36;100710.59;;;29.77;26.81
55068;BME280;40965;52.368;9.712;2023-05-09T10:41:03;100706.56;;;29.92;26.83
55068;BME280;40965;52.368;9.712;2023-05-09T10:43:31;100696.94;;;30.29;26.35
55068;BME280;40965;52.368;9.712;2023-05-09T10:45:58;100684.91;;;31.20;25.79
55068;BME280;40965;52.368;9.712;2023-05-09T10:48:27;100682.38;;;31.46;25.33
55068;BME280;40965;52.368;9.712;2023-05-09T10:50:54;100673.56;;;31.06;25.91
55068;BME280;40965;52.368;9.712;2023-05-09T10:53:21;100676.31;;;31.34;25.20
55068;BME280;40965;52.368;9.712;2023-05-09T10:55:56;100671.34;;;31.29;24.96
55068;BME280;40965;52.368;9.712;2023-05-09T10:58:32;100676.34;;;30.67;25.69
55068;BME280;40965;52.368;9.712;2023-05-09T11:01:03;100670.00;;;30.96;25.42
55068;BME280;40965;52.368;9.712;2023-05-09T11:03:52;100664.78;;;29.46;27.29
55068;BME280;40965;52.368;9.712;2023-05-09T11:09:40;100655.56;;;29.99;26.73
55068;BME280;40965;52.368;9.712;2023-05-09T11:12:07;100649.31;;;30.57;25.38
55068;BME280;40965;52.368;9.712;2023-05-09T11:14:42;100635.53;;;30.60;25.52
55068;BME280;40965;52.368;9.712;2023-05-09T11:17:13;100636.59;;;29.69;26.59
55068;BME280;40965;52.368;9.712;2023-05-09T11:24:45;100621.09;;;27.71;29.19
55068;BME280;40965;52.368;9.712;2023-05-09T11:27:23;100626.28;;;27.29;29.76
55068;BME280;40965;52.368;9.712;2023-05-09T11:29:52;100615.41;;;26.74;30.36
55068;BME280;40965;52.368;9.712;2023-05-09T11:32:25;100611.97;;;26.36;31.22
55068;BME280;40965;52.368;9.712;2023-05-09T11:35:07;100613.97;;;26.46;31.52
55068;BME280;40965;52.368;9.712;2023-05-09T11:38:03;100610.28;;;26.94;30.97
55068;BME280;40965;52.368;9.712;2023-05-09T11:40:33;100608.69;;;27.25;30.36
55068;BME280;40965;52.368;9.712;2023-05-09T11:43:00;100610.03;;;26.97;31.21
55068;BME280;40965;52.368;9.712;2023-05-09T11:45:29;100607.00;;;26.90;31.14
55068;BME280;40965;52.368;9.712;2023-05-09T11:47:56;100610.59;;;26.19;32.15
55068;BME280;40965;52.368;9.712;2023-05-09T11:50:23;100602.25;;;25.98;32.47
55068;BME280;40965;52.368;9.712;2023-05-09T11:52:50;100598.78;;;25.85;32.68
55068;BME280;40965;52.368;9.712;2023-05-09T11:55:18;100598.28;;;25.55;33.15
55068;BME280;40965;52.368;9.712;2023-05-09T11:57:51;100608.81;;;25.20;33.63
55068;BME280;40965;52.368;9.712;2023-05-09T12:00:23;100596.22;;;24.96;33.77
55068;BME280;40965;52.368;9.712;2023-05-09T12:02:50;100591.91;;;25.06;34.06
55068;BME280;40965;52.368;9.712;2023-05-09T12:05:19;100597.41;;;25.55;33.78
55068;BME280;40965;52.368;9.712;2023-05-09T12:07:47;100582.56;;;25.75;33.13
55068;BME280;40965;52.368;9.712;2023-05-09T12:10:17;100576.94;;;25.54;33.76
55068;BME280;40965;52.368;9.712;2023-05-09T12:12:49;100575.94;;;24.53;35.00
55068;BME280;40965;52.368;9.712;2023-05-09T12:15:19;100571.69;;;24.10;36.00
55068;BME280;40965;52.368;9.712;2023-05-09T12:17:46;100570.28;;;24.05;36.23
55068;BME280;40965;52.368;9.712;2023-05-09T12:20:13;100576.78;;;24.28;36.01
55068;BME280;40965;52.368;9.712;2023-05-09T12:22:42;100574.78;;;24.44;35.73
55068;BME280;40965;52.368;9.712;2023-05-09T12:25:09;100570.50;;;24.81;35.16
55068;BME280;40965;52.368;9.712;2023-05-09T12:27:39;100562.59;;;24.79;34.92
55068;BME280;40965;52.368;9.712;2023-05-09T12:30:06;100567.09;;;24.79;35.35
55068;BME280;40965;52.368;9.712;2023-05-09T12:32:38;100560.13;;;24.76;35.17
55068;BME280;40965;52.368;9.712;2023-05-09T12:35:06;100544.13;;;25.00;34.93
55068;BME280;40965;52.368;9.712;2023-05-09T12:37:34;100537.81;;;25.51;34.11
55068;BME280;40965;52.368;9.712;2023-05-09T12:40:03;100544.06;;;26.58;32.83
55068;BME280;40965;52.368;9.712;2023-05-09T12:42:32;100536.97;;;27.26;31.78
55068;BME280;40965;52.368;9.712;2023-05-09T12:45:03;100529.13;;;27.56;30.93
55068;BME280;40965;52.368;9.712;2023-05-09T12:47:32;100539.19;;;27.09;31.51
55068;BME280;40965;52.368;9.712;2023-05-09T12:50:00;100529.50;;;26.27;32.78
55068;BME280;40965;52.368;9.712;2023-05-09T12:52:39;100530.34;;;25.68;33.81
55068;BME280;40965;52.368;9.712;2023-05-09T12:55:11;100535.28;;;24.74;35.63
55068;BME280;40965;52.368;9.712;2023-05-09T12:57:39;100526.50;;;24.46;35.82
55068;BME280;40965;52.368;9.712;2023-05-09T13:00:09;100533.44;;;24.36;36.55
55068;BME280;40965;52.368;9.712;2023-05-09T13:02:37;100528.63;;;24.28;36.63
55068;BME280;40965;52.368;9.712;2023-05-09T13:05:07;100535.16;;;24.37;36.03
55068;BME280;40965;52.368;9.712;2023-05-09T13:07:46;100524.84;;;24.18;36.88
55068;BME280;40965;52.368;9.712;2023-05-09T13:10:17;100513.69;;;23.98;36.93